sensor_id;sensor_type;location;lat;lon;timestamp;pressure;altitude;pressure_sealevel;temperature;humidity
2188;BME280;1100;52.014;8.540;2023-07-31T00:01:42;99585.84;;;13.88;87.91
2188;BME280;1100;52.014;8.540;2023-07-31T00:04:08;99591.53;;;13.94;88.00
2188;BME280;1100;52.014;8.540;2023-07-31T00:06:33;99599.44;;;13.95;87.74
2188;BME280;1100;52.014;8.540;2023-07-31T00:08:58;99581.16;;;13.94;87.93
2188;BME280;1100;52.014;8.540;2023-07-31T00:11:24;99579.41;;;13.97;87.79
2188;BME280;1100;52.014;8.540;2023-07-31T00:13:49;99578.63;;;13.97;87.92
2188;BME280;1100;52.014;8.540;2023-07-31T00:16:14;99570.72;;;13.95;87.91
2188;BME280;1100;52.014;8.540;2023-07-31T00:18:40;99572.56;;;13.98;87.93
2188;BME280;1100;52.014;8.540;2023-07-31T00:21:05;99572.69;;;14.04;88.12
2188;BME280;1100;52.014;8.540;2023-07-31T00:23:30;99567.59;;;14.02;88.17
2188;BME280;1100;52.014;8.540;2023-07-31T00:25:56;99559.97;;;14.03;88.28
2188;BME280;1100;52.014;8.540;2023-07-31T00:28:21;99562.28;;;14.04;88.24
2188;BME280;1100;52.014;8.540;2023-07-31T00:30:46;99557.16;;;14.03;88.61
2188;BME280;1100;52.014;8.540;2023-07-31T00:33:12;99557.31;;;14.08;89.06
2188;BME280;1100;52.014;8.540;2023-07-31T00:35:37;99560.84;;;14.09;88.82
2188;BME280;1100;52.014;8.540;2023-07-31T00:38:02;99562.41;;;14.10;88.77
2188;BME280;1100;52.014;8.540;2023-07-31T00:40:28;99560.38;;;14.11;89.01
2188;BME280;1100;52.014;8.540;2023-07-31T00:42:53;99554.78;;;14.11;89.01
2188;BME280;1100;52.014;8.540;2023-07-31T00:45:18;99553.56;;;14.12;89.09
2188;BME280;1100;52.014;8.540;2023-07-31T00:47:44;99543.50;;;14.05;89.71
2188;BME280;1100;52.014;8.540;2023-07-31T00:50:09;99535.91;;;14.05;89.56
2188;BME280;1100;52.014;8.540;2023-07-31T00:52:36;99534.63;;;14.06;89.92
2188;BME280;1100;52.014;8.540;2023-07-31T00:55:03;99543.50;;;14.05;89.72
2188;BME280;1100;52.014;8.540;2023-07-31T00:57:28;99542.91;;;14.01;89.75
2188;BME280;1100;52.014;8.540;2023-07-31T00:59:54;99538.56;;;14.00;89.89
2188;BME280;1100;52.014;8.540;2023-07-31T01:02:20;99535.50;;;13.98;89.76
2188;BME280;1100;52.014;8.540;2023-07-31T01:04:45;99543.97;;;14.03;90.10
2188;BME280;1100;52.014;8.540;2023-07-31T01:07:22;99536.25;;;13.98;90.28
2188;BME280;1100;52.014;8.540;2023-07-31T01:09:57;99537.97;;;13.95;90.29
2188;BME280;1100;52.014;8.540;2023-07-31T01:12:27;99541.72;;;13.92;90.54
2188;BME280;1100;52.014;8.540;2023-07-31T01:17:26;99529.78;;;13.92;90.44
2188;BME280;1100;52.014;8.540;2023-07-31T01:19:52;99528.13;;;13.85;90.39
2188;BME280;1100;52.014;8.540;2023-07-31T01:28:03;99539.94;;;13.80;91.04
2188;BME280;1100;52.014;8.540;2023-07-31T01:30:32;99536.56;;;13.76;90.73
2188;BME280;1100;52.014;8.540;2023-07-31T01:33:02;99540.31;;;13.73;90.57
2188;BME280;1100;52.014;8.540;2023-07-31T01:35:37;99537.09;;;13.65;90.89
2188;BME280;1100;52.014;8.540;2023-07-31T01:38:03;99536.47;;;13.61;90.87
2188;BME280;1100;52.014;8.540;2023-07-31T01:40:28;99530.31;;;13.56;90.74
2188;BME280;1100;52.014;8.540;2023-07-31T01:42:54;99536.97;;;13.50;90.70
2188;BME280;1100;52.014;8.540;2023-07-31T01:45:19;99543.22;;;13.44;90.84
2188;BME280;1100;52.014;8.540;2023-07-31T01:47:45;99541.22;;;13.36;90.93
2188;BME280;1100;52.014;8.540;2023-07-31T01:50:10;99532.31;;;13.22;90.79
2188;BME280;1100;52.014;8.540;2023-07-31T01:52:36;99530.63;;;13.15;90.59
2188;BME280;1100;52.014;8.540;2023-07-31T01:55:01;99517.50;;;13.06;90.61
2188;BME280;1100;52.014;8.540;2023-07-31T01:57:26;99518.72;;;13.05;90.57
2188;BME280;1100;52.014;8.540;2023-07-31T01:59:52;99517.66;;;13.03;90.71
2188;BME280;1100;52.014;8.540;2023-07-31T02:02:19;99514.06;;;13.02;90.46
2188;BME280;1100;52.014;8.540;2023-07-31T02:04:44;99507.00;;;12.92;90.43
2188;BME280;1100;52.014;8.540;2023-07-31T02:07:09;99507.94;;;12.89;90.29
2188;BME280;1100;52.014;8.540;2023-07-31T02:09:35;99506.56;;;12.84;90.60
2188;BME280;1100;52.014;8.540;2023-07-31T02:12:00;99510.28;;;12.81;90.30
2188;BME280;1100;52.014;8.540;2023-07-31T02:14:25;99502.84;;;12.78;90.28
2188;BME280;1100;52.014;8.540;2023-07-31T02:16:50;99506.13;;;12.76;90.11
2188;BME280;1100;52.014;8.540;2023-07-31T02:19:16;99497.91;;;12.73;90.29
2188;BME280;1100;52.014;8.540;2023-07-31T02:21:41;99494.50;;;12.68;90.17
2188;BME280;1100;52.014;8.540;2023-07-31T02:24:06;99487.88;;;12.66;90.21
2188;BME280;1100;52.014;8.540;2023-07-31T02:26:32;99491.88;;;12.65;90.21
2188;BME280;1100;52.014;8.540;2023-07-31T02:28:57;99488.81;;;12.63;89.97
2188;BME280;1100;52.014;8.540;2023-07-31T02:31:22;99492.34;;;12.63;90.05
2188;BME280;1100;52.014;8.540;2023-07-31T02:33:48;99489.28;;;12.61;90.20
2188;BME280;1100;52.014;8.540;2023-07-31T02:36:13;99474.25;;;12.58;90.39
2188;BME280;1100;52.014;8.540;2023-07-31T02:38:39;99482.91;;;12.61;90.34
2188;BME280;1100;52.014;8.540;2023-07-31T02:41:05;99479.06;;;12.58;90.52
2188;BME280;1100;52.014;8.540;2023-07-31T02:43:30;99486.16;;;12.59;90.24
2188;BME280;1100;52.014;8.540;2023-07-31T02:45:55;99475.81;;;12.60;90.20
2188;BME280;1100;52.014;8.540;2023-07-31T02:48:21;99481.38;;;12.60;90.28
2188;BME280;1100;52.014;8.540;2023-07-31T02:50:47;99477.50;;;12.57;90.15
2188;BME280;1100;52.014;8.540;2023-07-31T02:53:13;99464.34;;;12.57;90.27
2188;BME280;1100;52.014;8.540;2023-07-31T02:55:38;99464.81;;;12.56;90.53
2188;BME280;1100;52.014;8.540;2023-07-31T02:58:04;99468.06;;;12.54;90.55
2188;BME280;1100;52.014;8.540;2023-07-31T03:00:29;99453.06;;;12.52;90.46
2188;BME280;1100;52.014;8.540;2023-07-31T03:02:55;99457.50;;;12.58;90.57
2188;BME280;1100;52.014;8.540;2023-07-31T03:05:20;99463.88;;;12.59;90.53
2188;BME280;1100;52.014;8.540;2023-07-31T03:07:46;99462.16;;;12.62;90.83
2188;BME280;1100;52.014;8.540;2023-07-31T03:10:11;99455.31;;;12.72;90.88
2188;BME280;1100;52.014;8.540;2023-07-31T03:12:36;99458.41;;;12.74;90.77
2188;BME280;1100;52.014;8.540;2023-07-31T03:15:02;99469.22;;;12.81;90.97
2188;BME280;1100;52.014;8.540;2023-07-31T03:17:27;99466.41;;;12.91;91.34
2188;BME280;1100;52.014;8.540;2023-07-31T03:19:52;99467.00;;;12.95;91.21
2188;BME280;1100;52.014;8.540;2023-07-31T03:22:18;99459.84;;;13.03;91.42
2188;BME280;1100;52.014;8.540;2023-07-31T03:24:43;99463.53;;;13.10;91.62
2188;BME280;1100;52.014;8.540;2023-07-31T03:27:08;99459.81;;;13.13;91.51
2188;BME280;1100;52.014;8.540;2023-07-31T03:29:34;99457.44;;;13.20;91.82
2188;BME280;1100;52.014;8.540;2023-07-31T03:31:59;99455.06;;;13.28;92.56
2188;BME280;1100;52.014;8.540;2023-07-31T03:34:25;99449.44;;;13.38;92.07
2188;BME280;1100;52.014;8.540;2023-07-31T03:36:50;99450.91;;;13.48;92.30
2188;BME280;1100;52.014;8.540;2023-07-31T03:39:16;99453.88;;;13.54;92.25
2188;BME280;1100;52.014;8.540;2023-07-31T03:41:41;99457.53;;;13.60;92.22
2188;BME280;1100;52.014;8.540;2023-07-31T03:44:06;99447.75;;;13.65;92.58
2188;BME280;1100;52.014;8.540;2023-07-31T03:46:32;99450.34;;;13.68;92.59
2188;BME280;1100;52.014;8.540;2023-07-31T03:48:59;99460.38;;;13.75;92.43
2188;BME280;1100;52.014;8.540;2023-07-31T03:51:24;99452.31;;;13.77;92.46
2188;BME280;1100;52.014;8.540;2023-07-31T03:53:49;99441.22;;;13.83;92.94
2188;BME280;1100;52.014;8.540;2023-07-31T03:56:15;99449.59;;;13.83;92.45
2188;BME280;1100;52.014;8.540;2023-07-31T03:58:40;99436.03;;;13.91;93.60
2188;BME280;1100;52.014;8.540;2023-07-31T04:01:05;99458.38;;;13.91;92.77
2188;BME280;1100;52.014;8.540;2023-07-31T04:03:31;99453.09;;;13.93;92.66
2188;BME280;1100;52.014;8.540;2023-07-31T04:05:56;99448.75;;;13.92;92.81
2188;BME280;1100;52.014;8.540;2023-07-31T04:08:22;99457.44;;;13.94;92.81
2188;BME280;1100;52.014;8.540;2023-07-31T04:10:48;99463.81;;;13.94;92.98
2188;BME280;1100;52.014;8.540;2023-07-31T04:13:14;99458.22;;;13.94;93.34
2188;BME280;1100;52.014;8.540;2023-07-31T04:15:39;99457.44;;;13.94;93.65
2188;BME280;1100;52.014;8.540;2023-07-31T04:18:06;99454.34;;;13.92;93.67
2188;BME280;1100;52.014;8.540;2023-07-31T04:20:31;99451.84;;;13.94;93.51
2188;BME280;1100;52.014;8.540;2023-07-31T04:22:57;99445.00;;;13.95;93.99
2188;BME280;1100;52.014;8.540;2023-07-31T04:25:22;99449.22;;;13.90;93.42
2188;BME280;1100;52.014;8.540;2023-07-31T04:27:47;99456.38;;;13.91;94.07
2188;BME280;1100;52.014;8.540;2023-07-31T04:30:13;99457.13;;;13.92;93.54
2188;BME280;1100;52.014;8.540;2023-07-31T04:32:38;99451.06;;;13.93;93.54
2188;BME280;1100;52.014;8.540;2023-07-31T04:35:04;99457.44;;;13.94;93.65
2188;BME280;1100;52.014;8.540;2023-07-31T04:37:29;99443.00;;;13.95;93.75
2188;BME280;1100;52.014;8.540;2023-07-31T04:39:54;99439.88;;;13.93;93.66
2188;BME280;1100;52.014;8.540;2023-07-31T04:42:20;99443.47;;;13.94;93.68
2188;BME280;1100;52.014;8.540;2023-07-31T04:44:45;99443.00;;;13.95;94.32
2188;BME280;1100;52.014;8.540;2023-07-31T04:47:10;99454.16;;;13.95;94.42
2188;BME280;1100;52.014;8.540;2023-07-31T04:49:36;99440.66;;;13.94;94.09
2188;BME280;1100;52.014;8.540;2023-07-31T04:52:01;99444.72;;;13.93;93.93
2188;BME280;1100;52.014;8.540;2023-07-31T04:54:27;99435.47;;;13.87;94.34
2188;BME280;1100;52.014;8.540;2023-07-31T04:56:52;99451.84;;;13.94;94.25
2188;BME280;1100;52.014;8.540;2023-07-31T04:59:18;99454.16;;;13.95;94.37
2188;BME280;1100;52.014;8.540;2023-07-31T05:01:43;99444.53;;;13.97;94.44
2188;BME280;1100;52.014;8.540;2023-07-31T05:04:13;99453.22;;;13.99;94.66
2188;BME280;1100;52.014;8.540;2023-07-31T05:06:39;99449.94;;;14.00;94.54
2188;BME280;1100;52.014;8.540;2023-07-31T05:09:04;99444.34;;;14.00;94.86
2188;BME280;1100;52.014;8.540;2023-07-31T05:11:30;99446.34;;;14.00;94.53
2188;BME280;1100;52.014;8.540;2023-07-31T05:13:55;99449.94;;;14.00;94.64
2188;BME280;1100;52.014;8.540;2023-07-31T05:16:20;99444.34;;;14.00;94.48
2188;BME280;1100;52.014;8.540;2023-07-31T05:18:45;99446.97;;;14.04;95.01
2188;BME280;1100;52.014;8.540;2023-07-31T05:21:11;99439.34;;;14.04;94.44
2188;BME280;1100;52.014;8.540;2023-07-31T05:23:36;99445.69;;;14.05;94.45
2188;BME280;1100;52.014;8.540;2023-07-31T05:26:06;99445.53;;;14.08;95.03
2188;BME280;1100;52.014;8.540;2023-07-31T05:28:34;99440.19;;;14.11;94.70
2188;BME280;1100;52.014;8.540;2023-07-31T05:31:01;99440.19;;;14.11;94.68
2188;BME280;1100;52.014;8.540;2023-07-31T05:33:26;99450.91;;;14.12;94.72
2188;BME280;1100;52.014;8.540;2023-07-31T05:35:52;99448.88;;;14.13;94.80
2188;BME280;1100;52.014;8.540;2023-07-31T05:38:17;99455.53;;;14.15;94.32
2188;BME280;1100;52.014;8.540;2023-07-31T05:40:43;99448.41;;;14.14;94.38
2188;BME280;1100;52.014;8.540;2023-07-31T05:43:08;99443.59;;;14.15;94.40
2188;BME280;1100;52.014;8.540;2023-07-31T05:45:34;99445.44;;;14.18;94.61
2188;BME280;1100;52.014;8.540;2023-07-31T05:48:00;99438.75;;;14.15;94.40
2188;BME280;1100;52.014;8.540;2023-07-31T05:50:25;99437.06;;;14.18;94.38
2188;BME280;1100;52.014;8.540;2023-07-31T05:52:51;99441.84;;;14.17;94.38
2188;BME280;1100;52.014;8.540;2023-07-31T05:55:17;99441.84;;;14.17;94.33
2188;BME280;1100;52.014;8.540;2023-07-31T05:57:42;99445.13;;;14.16;94.42
2188;BME280;1100;52.014;8.540;2023-07-31T06:00:08;99442.53;;;14.12;94.34
2188;BME280;1100;52.014;8.540;2023-07-31T06:02:34;99440.19;;;14.11;94.48
2188;BME280;1100;52.014;8.540;2023-07-31T06:05:02;99438.97;;;14.12;94.41
2188;BME280;1100;52.014;8.540;2023-07-31T06:07:29;99442.25;;;14.10;94.31
2188;BME280;1100;52.014;8.540;2023-07-31T06:09:54;99434.34;;;14.08;94.33
2188;BME280;1100;52.014;8.540;2023-07-31T06:12:20;99445.31;;;14.12;94.58
2188;BME280;1100;52.014;8.540;2023-07-31T06:14:45;99429.91;;;14.17;94.70
2188;BME280;1100;52.014;8.540;2023-07-31T06:17:11;99432.69;;;14.17;94.66
2188;BME280;1100;52.014;8.540;2023-07-31T06:19:36;99432.22;;;14.18;94.52
2188;BME280;1100;52.014;8.540;2023-07-31T06:22:01;99436.84;;;14.22;94.83
2188;BME280;1100;52.014;8.540;2023-07-31T06:24:28;99427.78;;;14.27;94.74
2188;BME280;1100;52.014;8.540;2023-07-31T06:26:53;99440.31;;;14.31;94.91
2188;BME280;1100;52.014;8.540;2023-07-31T06:29:18;99433.78;;;14.35;94.95
2188;BME280;1100;52.014;8.540;2023-07-31T06:31:44;99436.38;;;14.38;94.75
2188;BME280;1100;52.014;8.540;2023-07-31T06:34:09;99439.75;;;14.42;95.22
2188;BME280;1100;52.014;8.540;2023-07-31T06:36:34;99443.59;;;14.45;95.31
2188;BME280;1100;52.014;8.540;2023-07-31T06:38:59;99435.22;;;14.45;94.96
2188;BME280;1100;52.014;8.540;2023-07-31T06:41:25;99422.00;;;14.45;95.03
2188;BME280;1100;52.014;8.540;2023-07-31T06:43:50;99418.16;;;14.43;94.76
2188;BME280;1100;52.014;8.540;2023-07-31T06:46:15;99402.34;;;14.40;94.67
2188;BME280;1100;52.014;8.540;2023-07-31T06:48:41;99403.59;;;14.39;94.52
2188;BME280;1100;52.014;8.540;2023-07-31T06:51:06;99404.06;;;14.37;94.49
2188;BME280;1100;52.014;8.540;2023-07-31T06:53:31;99414.78;;;14.39;94.41
2188;BME280;1100;52.014;8.540;2023-07-31T06:55:57;99409.19;;;14.39;94.47
2188;BME280;1100;52.014;8.540;2023-07-31T06:58:22;99406.69;;;14.41;94.48
2188;BME280;1100;52.014;8.540;2023-07-31T07:00:48;99408.69;;;14.40;94.54
2188;BME280;1100;52.014;8.540;2023-07-31T07:03:14;99413.06;;;14.41;94.48
2188;BME280;1100;52.014;8.540;2023-07-31T07:05:40;99409.47;;;14.41;94.52
2188;BME280;1100;52.014;8.540;2023-07-31T07:08:05;99411.97;;;14.39;94.40
2188;BME280;1100;52.014;8.540;2023-07-31T07:10:31;99403.09;;;14.40;94.41
2188;BME280;1100;52.014;8.540;2023-07-31T07:12:56;99412.28;;;14.41;94.75
2188;BME280;1100;52.014;8.540;2023-07-31T07:15:21;99417.69;;;14.44;94.63
2188;BME280;1100;52.014;8.540;2023-07-31T07:17:46;99422.00;;;14.45;94.69
2188;BME280;1100;52.014;8.540;2023-07-31T07:20:12;99422.19;;;14.42;94.58
2188;BME280;1100;52.014;8.540;2023-07-31T07:22:37;99417.88;;;14.41;94.71
2188;BME280;1100;52.014;8.540;2023-07-31T07:25:04;99428.75;;;14.39;94.82
2188;BME280;1100;52.014;8.540;2023-07-31T07:27:29;99432.81;;;14.38;94.93
2188;BME280;1100;52.014;8.540;2023-07-31T07:29:54;99434.16;;;14.42;94.82
2188;BME280;1100;52.014;8.540;2023-07-31T07:32:20;99424.50;;;14.43;94.79
2188;BME280;1100;52.014;8.540;2023-07-31T07:34:47;99429.44;;;14.49;94.95
2188;BME280;1100;52.014;8.540;2023-07-31T07:37:12;99423.84;;;14.49;94.77
2188;BME280;1100;52.014;8.540;2023-07-31T07:39:38;99428.16;;;14.50;95.06
2188;BME280;1100;52.014;8.540;2023-07-31T07:42:03;99414.66;;;14.48;94.89
2188;BME280;1100;52.014;8.540;2023-07-31T07:44:28;99406.75;;;14.47;94.75
2188;BME280;1100;52.014;8.540;2023-07-31T07:46:54;99398.84;;;14.45;94.65
2188;BME280;1100;52.014;8.540;2023-07-31T07:49:19;99383.34;;;14.44;94.91
2188;BME280;1100;52.014;8.540;2023-07-31T07:51:47;99384.00;;;14.39;94.67
2188;BME280;1100;52.014;8.540;2023-07-31T07:54:13;99390.09;;;14.37;94.84
2188;BME280;1100;52.014;8.540;2023-07-31T07:56:38;99379.41;;;14.36;94.93
2188;BME280;1100;52.014;8.540;2023-07-31T07:59:04;99366.97;;;14.37;95.31
2188;BME280;1100;52.014;8.540;2023-07-31T08:01:29;99365.41;;;14.36;94.89
2188;BME280;1100;52.014;8.540;2023-07-31T08:03:55;99358.78;;;14.33;95.18
2188;BME280;1100;52.014;8.540;2023-07-31T08:06:20;99384.97;;;14.36;95.02
2188;BME280;1100;52.014;8.540;2023-07-31T08:08:46;99374.88;;;14.38;95.64
2188;BME280;1100;52.014;8.540;2023-07-31T08:11:11;99389.13;;;14.40;95.71
2188;BME280;1100;52.014;8.540;2023-07-31T08:13:36;99394.22;;;14.42;95.60
2188;BME280;1100;52.014;8.540;2023-07-31T08:16:03;99377.75;;;14.44;95.57
2188;BME280;1100;52.014;8.540;2023-07-31T08:18:30;99384.41;;;14.47;95.78
2188;BME280;1100;52.014;8.540;2023-07-31T08:20:56;99377.56;;;14.48;95.42
2188;BME280;1100;52.014;8.540;2023-07-31T08:23:21;99364.63;;;14.50;95.72
2188;BME280;1100;52.014;8.540;2023-07-31T08:25:47;99365.00;;;14.58;95.69
2188;BME280;1100;52.014;8.540;2023-07-31T08:28:12;99362.28;;;14.64;95.77
2188;BME280;1100;52.014;8.540;2023-07-31T08:30:37;99365.97;;;14.70;95.89
2188;BME280;1100;52.014;8.540;2023-07-31T08:33:03;99353.91;;;14.79;95.90
2188;BME280;1100;52.014;8.540;2023-07-31T08:35:28;99350.41;;;14.84;95.75
2188;BME280;1100;52.014;8.540;2023-07-31T08:37:54;99344.88;;;14.90;96.04
2188;BME280;1100;52.014;8.540;2023-07-31T08:40:19;99350.06;;;14.97;95.65
2188;BME280;1100;52.014;8.540;2023-07-31T08:42:48;99352.88;;;14.97;95.63
2188;BME280;1100;52.014;8.540;2023-07-31T08:45:16;99351.03;;;14.94;95.60
2188;BME280;1100;52.014;8.540;2023-07-31T08:47:46;99342.94;;;14.96;95.83
2188;BME280;1100;52.014;8.540;2023-07-31T08:50:13;99348.25;;;14.94;95.68
2188;BME280;1100;52.014;8.540;2023-07-31T08:52:39;99347.00;;;14.95;96.07
2188;BME280;1100;52.014;8.540;2023-07-31T08:55:06;99342.09;;;14.90;95.82
2188;BME280;1100;52.014;8.540;2023-07-31T08:57:34;99347.88;;;14.86;96.09
2188;BME280;1100;52.014;8.540;2023-07-31T08:59:59;99347.41;;;14.88;96.05
2188;BME280;1100;52.014;8.540;2023-07-31T09:02:31;99351.75;;;14.89;96.23
2188;BME280;1100;52.014;8.540;2023-07-31T09:04:59;99345.38;;;14.88;96.21
2188;BME280;1100;52.014;8.540;2023-07-31T09:07:25;99350.97;;;14.88;96.61
2188;BME280;1100;52.014;8.540;2023-07-31T09:09:51;99350.91;;;14.82;96.45
2188;BME280;1100;52.014;8.540;2023-07-31T09:12:16;99342.50;;;14.82;96.56
2188;BME280;1100;52.014;8.540;2023-07-31T09:14:43;99346.06;;;14.83;96.32
2188;BME280;1100;52.014;8.540;2023-07-31T09:17:10;99337.66;;;14.83;96.78
2188;BME280;1100;52.014;8.540;2023-07-31T09:19:35;99340.97;;;14.81;96.56
2188;BME280;1100;52.014;8.540;2023-07-31T09:22:03;99332.66;;;14.87;96.65
2188;BME280;1100;52.014;8.540;2023-07-31T09:24:31;99342.59;;;14.88;96.87
2188;BME280;1100;52.014;8.540;2023-07-31T09:26:57;99339.16;;;14.99;97.21
2188;BME280;1100;52.014;8.540;2023-07-31T09:29:27;99326.69;;;15.00;97.12
2188;BME280;1100;52.014;8.540;2023-07-31T09:31:54;99340.19;;;15.02;96.93
2188;BME280;1100;52.014;8.540;2023-07-31T09:34:20;99324.97;;;15.03;97.18
2188;BME280;1100;52.014;8.540;2023-07-31T09:36:53;99331.25;;;14.98;96.99
2188;BME280;1100;52.014;8.540;2023-07-31T09:39:18;99331.53;;;15.00;97.66
2188;BME280;1100;52.014;8.540;2023-07-31T09:41:54;99321.81;;;14.95;97.18
2188;BME280;1100;52.014;8.540;2023-07-31T09:44:20;99327.13;;;14.93;97.29
2188;BME280;1100;52.014;8.540;2023-07-31T09:46:46;99329.72;;;14.97;97.18
2188;BME280;1100;52.014;8.540;2023-07-31T09:49:13;99320.84;;;14.98;97.27
2188;BME280;1100;52.014;8.540;2023-07-31T09:51:39;99319.88;;;15.01;97.31
2188;BME280;1100;52.014;8.540;2023-07-31T09:54:10;99320.34;;;15.00;97.39
2188;BME280;1100;52.014;8.540;2023-07-31T09:56:39;99322.66;;;15.01;97.59
2188;BME280;1100;52.014;8.540;2023-07-31T09:59:07;99318.41;;;15.06;97.43
2188;BME280;1100;52.014;8.540;2023-07-31T10:01:35;99316.63;;;15.09;97.26
2188;BME280;1100;52.014;8.540;2023-07-31T10:04:01;99309.78;;;15.10;97.40
2188;BME280;1100;52.014;8.540;2023-07-31T10:06:27;99301.13;;;15.07;97.47
2188;BME280;1100;52.014;8.540;2023-07-31T10:08:54;99311.53;;;15.07;97.62
2188;BME280;1100;52.014;8.540;2023-07-31T10:11:21;99311.53;;;15.07;97.56
2188;BME280;1100;52.014;8.540;2023-07-31T10:13:47;99315.84;;;15.08;97.74
2188;BME280;1100;52.014;8.540;2023-07-31T10:16:14;99306.97;;;15.10;97.35
2188;BME280;1100;52.014;8.540;2023-07-31T10:18:42;99314.38;;;15.13;97.82
2188;BME280;1100;52.014;8.540;2023-07-31T10:21:07;99313.41;;;15.16;97.44
2188;BME280;1100;52.014;8.540;2023-07-31T10:23:33;99316.50;;;15.18;97.47
2188;BME280;1100;52.014;8.540;2023-07-31T10:25:58;99316.84;;;15.26;97.59
2188;BME280;1100;52.014;8.540;2023-07-31T10:28:24;99305.44;;;15.29;97.58
2188;BME280;1100;52.014;8.540;2023-07-31T10:30:50;99301.06;;;15.28;97.40
2188;BME280;1100;52.014;8.540;2023-07-31T10:33:16;99307.75;;;15.31;97.99
2188;BME280;1100;52.014;8.540;2023-07-31T10:35:42;99312.56;;;15.30;97.69
2188;BME280;1100;52.014;8.540;2023-07-31T10:38:11;99306.19;;;15.30;97.55
2188;BME280;1100;52.014;8.540;2023-07-31T10:40:37;99310.53;;;15.31;97.64
2188;BME280;1100;52.014;8.540;2023-07-31T10:43:02;99292.97;;;15.30;97.62
2188;BME280;1100;52.014;8.540;2023-07-31T10:45:39;99302.16;;;15.31;97.87
2188;BME280;1100;52.014;8.540;2023-07-31T10:48:15;99289.19;;;15.34;97.61
2188;BME280;1100;52.014;8.540;2023-07-31T10:50:51;99297.03;;;15.29;97.92
2188;BME280;1100;52.014;8.540;2023-07-31T10:55:49;99297.25;;;15.26;97.88
2188;BME280;1100;52.014;8.540;2023-07-31T10:58:19;99292.13;;;15.24;98.29
2188;BME280;1100;52.014;8.540;2023-07-31T11:00:45;99281.63;;;15.19;97.97
2188;BME280;1100;52.014;8.540;2023-07-31T11:03:12;99279.41;;;15.23;97.88
2188;BME280;1100;52.014;8.540;2023-07-31T11:10:37;99283.19;;;15.20;98.26
2188;BME280;1100;52.014;8.540;2023-07-31T11:13:04;99278.91;;;15.25;98.30
2188;BME280;1100;52.014;8.540;2023-07-31T11:15:29;99271.50;;;15.22;98.54
2188;BME280;1100;52.014;8.540;2023-07-31T11:17:55;99272.25;;;15.22;98.51
2188;BME280;1100;52.014;8.540;2023-07-31T11:20:24;99272.53;;;15.24;98.74
2188;BME280;1100;52.014;8.540;2023-07-31T11:22:49;99283.25;;;15.26;98.38
2188;BME280;1100;52.014;8.540;2023-07-31T11:25:14;99270.50;;;15.25;98.63
2188;BME280;1100;52.014;8.540;2023-07-31T11:27:40;99285.69;;;15.18;98.54
2188;BME280;1100;52.014;8.540;2023-07-31T11:30:09;99284.94;;;15.17;98.79
2188;BME280;1100;52.014;8.540;2023-07-31T11:32:38;99268.91;;;15.18;98.78
2188;BME280;1100;52.014;8.540;2023-07-31T11:35:03;99270.72;;;15.21;98.64
2188;BME280;1100;52.014;8.540;2023-07-31T11:37:43;99265.47;;;15.29;98.74
2188;BME280;1100;52.014;8.540;2023-07-31T11:40:10;99267.78;;;15.30;99.06
2188;BME280;1100;52.014;8.540;2023-07-31T11:42:36;99266.25;;;15.29;98.70
2188;BME280;1100;52.014;8.540;2023-07-31T11:45:03;99273.16;;;15.34;98.81
2188;BME280;1100;52.014;8.540;2023-07-31T11:47:30;99266.78;;;15.34;98.35
2188;BME280;1100;52.014;8.540;2023-07-31T11:49:57;99267.56;;;15.34;98.58
2188;BME280;1100;52.014;8.540;2023-07-31T11:52:23;99271.41;;;15.37;98.67
2188;BME280;1100;52.014;8.540;2023-07-31T11:54:50;99258.66;;;15.36;98.66
2188;BME280;1100;52.014;8.540;2023-07-31T11:57:16;99253.28;;;15.32;99.01
2188;BME280;1100;52.014;8.540;2023-07-31T11:59:42;99259.41;;;15.36;99.38
2188;BME280;1100;52.014;8.540;2023-07-31T12:02:08;99265.50;;;15.35;99.43
2188;BME280;1100;52.014;8.540;2023-07-31T12:04:34;99267.31;;;15.38;99.31
2188;BME280;1100;52.014;8.540;2023-07-31T12:07:00;99259.69;;;15.38;99.14
2188;BME280;1100;52.014;8.540;2023-07-31T12:09:25;99266.84;;;15.39;99.43
2188;BME280;1100;52.014;8.540;2023-07-31T12:11:51;99260.47;;;15.39;98.92
2188;BME280;1100;52.014;8.540;2023-07-31T12:14:24;99256.91;;;15.38;99.13
2188;BME280;1100;52.014;8.540;2023-07-31T12:16:54;99254.38;;;15.40;99.56
2188;BME280;1100;52.014;8.540;2023-07-31T12:19:19;99243.72;;;15.44;99.20
2188;BME280;1100;52.014;8.540;2023-07-31T12:21:45;99245.81;;;15.50;99.46
2188;BME280;1100;52.014;8.540;2023-07-31T12:24:10;99247.88;;;15.55;99.19
2188;BME280;1100;52.014;8.540;2023-07-31T12:26:35;99256.03;;;15.53;99.19
2188;BME280;1100;52.014;8.540;2023-07-31T12:29:01;99244.34;;;15.54;99.13
2188;BME280;1100;52.014;8.540;2023-07-31T12:31:28;99247.97;;;15.61;99.67
2188;BME280;1100;52.014;8.540;2023-07-31T12:33:55;99246.16;;;15.57;99.41
2188;BME280;1100;52.014;8.540;2023-07-31T12:36:22;99251.75;;;15.57;99.29
2188;BME280;1100;52.014;8.540;2023-07-31T12:38:49;99238.00;;;15.60;99.44
2188;BME280;1100;52.014;8.540;2023-07-31T12:41:15;99235.47;;;15.62;99.73
2188;BME280;1100;52.014;8.540;2023-07-31T12:43:41;99246.69;;;15.62;99.64
2188;BME280;1100;52.014;8.540;2023-07-31T12:46:07;99250.47;;;15.59;99.65
2188;BME280;1100;52.014;8.540;2023-07-31T12:48:34;99237.19;;;15.53;99.95
2188;BME280;1100;52.014;8.540;2023-07-31T12:50:59;99229.28;;;15.52;99.76
2188;BME280;1100;52.014;8.540;2023-07-31T12:53:25;99244.84;;;15.53;99.75
2188;BME280;1100;52.014;8.540;2023-07-31T12:55:50;99234.66;;;15.55;99.77
2188;BME280;1100;52.014;8.540;2023-07-31T12:58:17;99238.66;;;15.49;99.91
2188;BME280;1100;52.014;8.540;2023-07-31T13:00:42;99240.16;;;15.44;100.00
2188;BME280;1100;52.014;8.540;2023-07-31T13:03:08;99231.00;;;15.43;100.00
2188;BME280;1100;52.014;8.540;2023-07-31T13:05:33;99226.03;;;15.59;100.00
2188;BME280;1100;52.014;8.540;2023-07-31T13:07:59;99228.34;;;15.61;100.00
2188;BME280;1100;52.014;8.540;2023-07-31T13:10:24;99229.69;;;15.71;100.00
2188;BME280;1100;52.014;8.540;2023-07-31T13:12:52;99227.22;;;15.79;100.00
2188;BME280;1100;52.014;8.540;2023-07-31T13:15:17;99226.75;;;15.86;100.00
2188;BME280;1100;52.014;8.540;2023-07-31T13:17:43;99221.97;;;15.92;100.00
2188;BME280;1100;52.014;8.540;2023-07-31T13:20:08;99231.16;;;15.93;100.00
2188;BME280;1100;52.014;8.540;2023-07-31T13:22:34;99221.59;;;16.05;100.00
2188;BME280;1100;52.014;8.540;2023-07-31T13:25:00;99215.03;;;16.14;100.00
2188;BME280;1100;52.014;8.540;2023-07-31T13:27:25;99210.03;;;16.36;100.00
2188;BME280;1100;52.014;8.540;2023-07-31T13:29:51;99204.53;;;16.53;100.00
2188;BME280;1100;52.014;8.540;2023-07-31T13:32:18;99209.19;;;16.73;99.95